sensor_id;sensor_type;location;lat;lon;timestamp;P1;durP1;ratioP1;P2;durP2;ratioP2
77117;SDS011;66072;50.238;19.228;2022-12-18T00:00:03;30.40;;;11.50;;
77117;SDS011;66072;50.238;19.228;2022-12-18T00:02:32;38.80;;;14.80;;
77117;SDS011;66072;50.238;19.228;2022-12-18T00:05:00;44.00;;;15.30;;
77117;SDS011;66072;50.238;19.228;2022-12-18T00:07:28;35.50;;;16.70;;
77117;SDS011;66072;50.238;19.228;2022-12-18T00:09:55;41.40;;;16.50;;
77117;SDS011;66072;50.238;19.228;2022-12-18T00:12:23;29.00;;;12.00;;
77117;SDS011;66072;50.238;19.228;2022-12-18T00:14:51;39.50;;;15.40;;
77117;SDS011;66072;50.238;19.228;2022-12-18T00:17:18;34.40;;;13.70;;
77117;SDS011;66072;50.238;19.228;2022-12-18T00:19:46;34.10;;;13.40;;
77117;SDS011;66072;50.238;19.228;2022-12-18T00:22:14;38.40;;;15.70;;
77117;SDS011;66072;50.238;19.228;2022-12-18T00:24:43;35.60;;;14.50;;
77117;SDS011;66072;50.238;19.228;2022-12-18T00:27:10;34.10;;;15.70;;
77117;SDS011;66072;50.238;19.228;2022-12-18T00:29:38;34.20;;;13.40;;
77117;SDS011;66072;50.238;19.228;2022-12-18T00:32:05;26.70;;;12.80;;
77117;SDS011;66072;50.238;19.228;2022-12-18T00:34:33;36.30;;;15.50;;
77117;SDS011;66072;50.238;19.228;2022-12-18T00:37:00;36.50;;;14.20;;
77117;SDS011;66072;50.238;19.228;2022-12-18T00:39:28;41.90;;;16.00;;
77117;SDS011;66072;50.238;19.228;2022-12-18T00:41:56;30.10;;;14.40;;
77117;SDS011;66072;50.238;19.228;2022-12-18T00:44:24;34.20;;;15.70;;
77117;SDS011;66072;50.238;19.228;2022-12-18T00:46:51;33.80;;;14.20;;
77117;SDS011;66072;50.238;19.228;2022-12-18T00:49:19;37.00;;;16.30;;
77117;SDS011;66072;50.238;19.228;2022-12-18T00:51:48;35.20;;;15.50;;
77117;SDS011;66072;50.238;19.228;2022-12-18T00:54:15;42.20;;;15.60;;
77117;SDS011;66072;50.238;19.228;2022-12-18T00:56:43;35.00;;;15.80;;
77117;SDS011;66072;50.238;19.228;2022-12-18T00:59:16;31.20;;;15.40;;
77117;SDS011;66072;50.238;19.228;2022-12-18T01:01:45;31.60;;;14.50;;
77117;SDS011;66072;50.238;19.228;2022-12-18T01:04:14;35.60;;;15.00;;
77117;SDS011;66072;50.238;19.228;2022-12-18T01:06:42;38.50;;;14.70;;
77117;SDS011;66072;50.238;19.228;2022-12-18T01:09:11;34.90;;;15.80;;
77117;SDS011;66072;50.238;19.228;2022-12-18T01:11:38;39.50;;;15.20;;
77117;SDS011;66072;50.238;19.228;2022-12-18T01:14:06;36.50;;;14.70;;
77117;SDS011;66072;50.238;19.228;2022-12-18T01:16:34;35.80;;;15.40;;
77117;SDS011;66072;50.238;19.228;2022-12-18T01:19:02;32.90;;;13.80;;
77117;SDS011;66072;50.238;19.228;2022-12-18T01:21:30;37.90;;;15.40;;
77117;SDS011;66072;50.238;19.228;2022-12-18T01:23:58;40.40;;;16.60;;
77117;SDS011;66072;50.238;19.228;2022-12-18T01:26:25;42.20;;;15.70;;
77117;SDS011;66072;50.238;19.228;2022-12-18T01:28:55;42.30;;;17.50;;
77117;SDS011;66072;50.238;19.228;2022-12-18T01:31:24;35.70;;;14.20;;
77117;SDS011;66072;50.238;19.228;2022-12-18T01:33:55;40.70;;;16.10;;
77117;SDS011;66072;50.238;19.228;2022-12-18T01:36:24;29.20;;;14.60;;
77117;SDS011;66072;50.238;19.228;2022-12-18T01:38:54;33.80;;;14.70;;
77117;SDS011;66072;50.238;19.228;2022-12-18T01:41:23;36.90;;;15.40;;
77117;SDS011;66072;50.238;19.228;2022-12-18T01:43:57;33.00;;;13.50;;
77117;SDS011;66072;50.238;19.228;2022-12-18T01:46:26;37.30;;;16.40;;
77117;SDS011;66072;50.238;19.228;2022-12-18T01:48:58;46.10;;;18.60;;
77117;SDS011;66072;50.238;19.228;2022-12-18T01:51:28;36.80;;;16.00;;
77117;SDS011;66072;50.238;19.228;2022-12-18T01:53:58;39.00;;;14.70;;
77117;SDS011;66072;50.238;19.228;2022-12-18T01:56:26;29.50;;;13.10;;
77117;SDS011;66072;50.238;19.228;2022-12-18T01:59:02;37.20;;;15.90;;
77117;SDS011;66072;50.238;19.228;2022-12-18T02:01:34;33.30;;;14.40;;
77117;SDS011;66072;50.238;19.228;2022-12-18T02:04:22;34.70;;;15.30;;
77117;SDS011;66072;50.238;19.228;2022-12-18T02:06:53;34.20;;;14.80;;
77117;SDS011;66072;50.238;19.228;2022-12-18T02:09:31;35.00;;;14.50;;
77117;SDS011;66072;50.238;19.228;2022-12-18T02:17:24;39.70;;;19.50;;
77117;SDS011;66072;50.238;19.228;2022-12-18T02:20:11;44.80;;;17.10;;
77117;SDS011;66072;50.238;19.228;2022-12-18T02:22:44;48.70;;;18.70;;
77117;SDS011;66072;50.238;19.228;2022-12-18T02:28:00;37.20;;;16.90;;
77117;SDS011;66072;50.238;19.228;2022-12-18T02:30:33;28.90;;;14.60;;
77117;SDS011;66072;50.238;19.228;2022-12-18T02:33:04;35.50;;;15.30;;
77117;SDS011;66072;50.238;19.228;2022-12-18T02:35:35;39.20;;;15.60;;
77117;SDS011;66072;50.238;19.228;2022-12-18T02:38:04;30.90;;;14.00;;
77117;SDS011;66072;50.238;19.228;2022-12-18T02:40:33;36.20;;;13.40;;
77117;SDS011;66072;50.238;19.228;2022-12-18T02:43:09;56.10;;;20.90;;
77117;SDS011;66072;50.238;19.228;2022-12-18T02:45:46;49.70;;;18.40;;
77117;SDS011;66072;50.238;19.228;2022-12-18T02:48:22;37.40;;;15.30;;
77117;SDS011;66072;50.238;19.228;2022-12-18T02:51:03;33.20;;;14.10;;
77117;SDS011;66072;50.238;19.228;2022-12-18T02:53:52;38.10;;;15.00;;
77117;SDS011;66072;50.238;19.228;2022-12-18T02:56:29;38.10;;;13.60;;
77117;SDS011;66072;50.238;19.228;2022-12-18T02:59:09;27.70;;;11.70;;
77117;SDS011;66072;50.238;19.228;2022-12-18T03:06:59;32.00;;;12.90;;
77117;SDS011;66072;50.238;19.228;2022-12-18T03:09:34;39.30;;;17.20;;
77117;SDS011;66072;50.238;19.228;2022-12-18T03:12:24;59.30;;;23.00;;
77117;SDS011;66072;50.238;19.228;2022-12-18T03:15:16;42.90;;;18.70;;
77117;SDS011;66072;50.238;19.228;2022-12-18T03:17:50;45.30;;;18.80;;
77117;SDS011;66072;50.238;19.228;2022-12-18T03:20:22;43.00;;;17.80;;
77117;SDS011;66072;50.238;19.228;2022-12-18T03:25:29;48.60;;;18.20;;
77117;SDS011;66072;50.238;19.228;2022-12-18T03:27:59;38.20;;;15.70;;
77117;SDS011;66072;50.238;19.228;2022-12-18T03:30:29;42.80;;;16.40;;
77117;SDS011;66072;50.238;19.228;2022-12-18T03:33:02;38.70;;;15.30;;
77117;SDS011;66072;50.238;19.228;2022-12-18T03:35:37;59.50;;;21.60;;
77117;SDS011;66072;50.238;19.228;2022-12-18T03:38:09;55.00;;;20.40;;
77117;SDS011;66072;50.238;19.228;2022-12-18T03:46:06;38.40;;;16.40;;
77117;SDS011;66072;50.238;19.228;2022-12-18T03:48:44;38.20;;;14.50;;
77117;SDS011;66072;50.238;19.228;2022-12-18T03:51:23;38.30;;;15.20;;
77117;SDS011;66072;50.238;19.228;2022-12-18T03:53:57;30.80;;;12.10;;
77117;SDS011;66072;50.238;19.228;2022-12-18T03:56:29;42.20;;;16.40;;
77117;SDS011;66072;50.238;19.228;2022-12-18T03:58:59;44.60;;;16.50;;
77117;SDS011;66072;50.238;19.228;2022-12-18T04:01:32;39.90;;;16.00;;
77117;SDS011;66072;50.238;19.228;2022-12-18T04:04:04;41.70;;;17.60;;
77117;SDS011;66072;50.238;19.228;2022-12-18T04:06:34;37.60;;;14.60;;
77117;SDS011;66072;50.238;19.228;2022-12-18T04:09:03;40.40;;;16.80;;
77117;SDS011;66072;50.238;19.228;2022-12-18T04:11:32;30.20;;;13.50;;
77117;SDS011;66072;50.238;19.228;2022-12-18T04:14:00;39.20;;;15.00;;
77117;SDS011;66072;50.238;19.228;2022-12-18T04:16:33;33.30;;;13.70;;
77117;SDS011;66072;50.238;19.228;2022-12-18T04:19:01;39.90;;;14.20;;
77117;SDS011;66072;50.238;19.228;2022-12-18T04:21:29;58.10;;;20.90;;
77117;SDS011;66072;50.238;19.228;2022-12-18T04:23:57;55.80;;;22.20;;
77117;SDS011;66072;50.238;19.228;2022-12-18T04:26:25;43.10;;;18.70;;
77117;SDS011;66072;50.238;19.228;2022-12-18T04:28:52;42.60;;;15.80;;
77117;SDS011;66072;50.238;19.228;2022-12-18T04:31:20;38.80;;;15.70;;
77117;SDS011;66072;50.238;19.228;2022-12-18T04:33:48;37.20;;;15.10;;
77117;SDS011;66072;50.238;19.228;2022-12-18T04:36:15;33.00;;;13.70;;
77117;SDS011;66072;50.238;19.228;2022-12-18T04:38:43;35.40;;;14.70;;
77117;SDS011;66072;50.238;19.228;2022-12-18T04:41:11;51.20;;;18.70;;
77117;SDS011;66072;50.238;19.228;2022-12-18T04:43:39;58.30;;;22.40;;
77117;SDS011;66072;50.238;19.228;2022-12-18T04:46:07;53.30;;;20.50;;
77117;SDS011;66072;50.238;19.228;2022-12-18T04:48:36;40.20;;;16.70;;
77117;SDS011;66072;50.238;19.228;2022-12-18T04:51:05;50.90;;;20.50;;
77117;SDS011;66072;50.238;19.228;2022-12-18T04:53:33;45.40;;;17.10;;
77117;SDS011;66072;50.238;19.228;2022-12-18T04:56:02;38.50;;;16.80;;
77117;SDS011;66072;50.238;19.228;2022-12-18T04:58:34;46.80;;;17.90;;
77117;SDS011;66072;50.238;19.228;2022-12-18T05:01:03;37.80;;;16.00;;
77117;SDS011;66072;50.238;19.228;2022-12-18T05:03:31;58.00;;;21.40;;
77117;SDS011;66072;50.238;19.228;2022-12-18T05:05:59;53.80;;;22.70;;
77117;SDS011;66072;50.238;19.228;2022-12-18T05:08:26;60.60;;;23.10;;
77117;SDS011;66072;50.238;19.228;2022-12-18T05:11:07;45.20;;;18.00;;
77117;SDS011;66072;50.238;19.228;2022-12-18T05:13:37;49.20;;;19.90;;
77117;SDS011;66072;50.238;19.228;2022-12-18T05:16:06;47.40;;;18.90;;
77117;SDS011;66072;50.238;19.228;2022-12-18T05:18:35;53.30;;;22.90;;
77117;SDS011;66072;50.238;19.228;2022-12-18T05:21:04;34.70;;;16.20;;
77117;SDS011;66072;50.238;19.228;2022-12-18T05:23:31;61.10;;;23.30;;
77117;SDS011;66072;50.238;19.228;2022-12-18T05:26:00;46.80;;;18.40;;
77117;SDS011;66072;50.238;19.228;2022-12-18T05:28:30;38.10;;;17.20;;
77117;SDS011;66072;50.238;19.228;2022-12-18T05:31:00;46.20;;;18.70;;
77117;SDS011;66072;50.238;19.228;2022-12-18T05:33:30;52.30;;;20.50;;
77117;SDS011;66072;50.238;19.228;2022-12-18T05:36:00;44.60;;;18.10;;
77117;SDS011;66072;50.238;19.228;2022-12-18T05:38:30;39.10;;;15.50;;
77117;SDS011;66072;50.238;19.228;2022-12-18T05:40:59;40.10;;;16.20;;
77117;SDS011;66072;50.238;19.228;2022-12-18T05:43:27;43.00;;;18.50;;
77117;SDS011;66072;50.238;19.228;2022-12-18T05:45:56;57.90;;;22.10;;
77117;SDS011;66072;50.238;19.228;2022-12-18T05:48:23;53.10;;;21.50;;
77117;SDS011;66072;50.238;19.228;2022-12-18T05:50:51;58.20;;;22.40;;
77117;SDS011;66072;50.238;19.228;2022-12-18T05:53:19;55.50;;;22.90;;
77117;SDS011;66072;50.238;19.228;2022-12-18T05:55:47;44.20;;;19.30;;
77117;SDS011;66072;50.238;19.228;2022-12-18T05:58:15;44.40;;;20.20;;
77117;SDS011;66072;50.238;19.228;2022-12-18T06:00:44;52.10;;;20.60;;
77117;SDS011;66072;50.238;19.228;2022-12-18T06:03:13;53.30;;;18.80;;
77117;SDS011;66072;50.238;19.228;2022-12-18T06:05:42;47.50;;;17.90;;
77117;SDS011;66072;50.238;19.228;2022-12-18T06:08:12;46.50;;;18.50;;
77117;SDS011;66072;50.238;19.228;2022-12-18T06:10:40;72.30;;;24.30;;
77117;SDS011;66072;50.238;19.228;2022-12-18T06:13:09;61.60;;;23.60;;
77117;SDS011;66072;50.238;19.228;2022-12-18T06:15:36;53.70;;;21.90;;
77117;SDS011;66072;50.238;19.228;2022-12-18T06:18:04;53.90;;;21.20;;
77117;SDS011;66072;50.238;19.228;2022-12-18T06:20:32;53.10;;;21.80;;
77117;SDS011;66072;50.238;19.228;2022-12-18T06:23:00;58.50;;;22.90;;
77117;SDS011;66072;50.238;19.228;2022-12-18T06:25:28;53.30;;;21.30;;
77117;SDS011;66072;50.238;19.228;2022-12-18T06:27:56;39.40;;;17.00;;
77117;SDS011;66072;50.238;19.228;2022-12-18T06:30:24;61.60;;;24.40;;
77117;SDS011;66072;50.238;19.228;2022-12-18T06:32:52;55.80;;;22.60;;
77117;SDS011;66072;50.238;19.228;2022-12-18T06:35:23;53.60;;;22.80;;
77117;SDS011;66072;50.238;19.228;2022-12-18T06:37:51;62.50;;;24.40;;
77117;SDS011;66072;50.238;19.228;2022-12-18T06:40:18;67.00;;;24.70;;
77117;SDS011;66072;50.238;19.228;2022-12-18T06:42:47;55.30;;;22.10;;
77117;SDS011;66072;50.238;19.228;2022-12-18T06:45:14;50.20;;;22.30;;
77117;SDS011;66072;50.238;19.228;2022-12-18T06:47:43;50.10;;;21.90;;
77117;SDS011;66072;50.238;19.228;2022-12-18T06:50:10;49.50;;;20.20;;
77117;SDS011;66072;50.238;19.228;2022-12-18T06:52:39;52.70;;;21.30;;
77117;SDS011;66072;50.238;19.228;2022-12-18T06:55:07;51.40;;;21.40;;
77117;SDS011;66072;50.238;19.228;2022-12-18T06:57:35;42.50;;;16.50;;
77117;SDS011;66072;50.238;19.228;2022-12-18T07:00:04;64.30;;;25.40;;
77117;SDS011;66072;50.238;19.228;2022-12-18T07:02:33;62.50;;;26.30;;
77117;SDS011;66072;50.238;19.228;2022-12-18T07:05:01;90.30;;;35.20;;
77117;SDS011;66072;50.238;19.228;2022-12-18T07:07:36;70.70;;;30.10;;
77117;SDS011;66072;50.238;19.228;2022-12-18T07:10:04;60.30;;;25.20;;
77117;SDS011;66072;50.238;19.228;2022-12-18T07:12:32;56.90;;;24.20;;
77117;SDS011;66072;50.238;19.228;2022-12-18T07:15:00;53.90;;;23.50;;
77117;SDS011;66072;50.238;19.228;2022-12-18T07:17:28;53.50;;;21.40;;
77117;SDS011;66072;50.238;19.228;2022-12-18T07:19:56;51.80;;;23.50;;
77117;SDS011;66072;50.238;19.228;2022-12-18T07:22:27;58.50;;;22.70;;
77117;SDS011;66072;50.238;19.228;2022-12-18T07:27:22;56.40;;;21.80;;
77117;SDS011;66072;50.238;19.228;2022-12-18T07:29:50;74.00;;;29.70;;
77117;SDS011;66072;50.238;19.228;2022-12-18T07:32:18;62.90;;;27.00;;
77117;SDS011;66072;50.238;19.228;2022-12-18T07:34:46;59.80;;;25.30;;
77117;SDS011;66072;50.238;19.228;2022-12-18T07:37:14;59.40;;;27.80;;
77117;SDS011;66072;50.238;19.228;2022-12-18T07:39:41;68.90;;;27.40;;
77117;SDS011;66072;50.238;19.228;2022-12-18T07:42:09;69.00;;;32.10;;
77117;SDS011;66072;50.238;19.228;2022-12-18T07:44:37;63.50;;;28.10;;
77117;SDS011;66072;50.238;19.228;2022-12-18T07:47:05;62.70;;;28.00;;
77117;SDS011;66072;50.238;19.228;2022-12-18T07:49:38;61.30;;;26.20;;
77117;SDS011;66072;50.238;19.228;2022-12-18T07:52:06;57.00;;;27.40;;
77117;SDS011;66072;50.238;19.228;2022-12-18T07:54:34;59.70;;;24.90;;
77117;SDS011;66072;50.238;19.228;2022-12-18T07:57:02;60.90;;;25.40;;
77117;SDS011;66072;50.238;19.228;2022-12-18T07:59:39;60.80;;;24.80;;
77117;SDS011;66072;50.238;19.228;2022-12-18T08:02:06;57.70;;;27.00;;
77117;SDS011;66072;50.238;19.228;2022-12-18T08:04:35;58.00;;;25.70;;
77117;SDS011;66072;50.238;19.228;2022-12-18T08:07:02;57.40;;;26.80;;
77117;SDS011;66072;50.238;19.228;2022-12-18T08:09:30;84.60;;;35.10;;
77117;SDS011;66072;50.238;19.228;2022-12-18T08:11:58;68.20;;;27.50;;
77117;SDS011;66072;50.238;19.228;2022-12-18T08:14:26;63.10;;;27.10;;
77117;SDS011;66072;50.238;19.228;2022-12-18T08:16:54;55.60;;;25.80;;
77117;SDS011;66072;50.238;19.228;2022-12-18T08:19:21;69.70;;;25.80;;
77117;SDS011;66072;50.238;19.228;2022-12-18T08:21:49;64.20;;;27.00;;
77117;SDS011;66072;50.238;19.228;2022-12-18T08:24:17;57.90;;;24.10;;
77117;SDS011;66072;50.238;19.228;2022-12-18T08:26:45;52.70;;;22.00;;
77117;SDS011;66072;50.238;19.228;2022-12-18T08:29:33;58.90;;;25.90;;
77117;SDS011;66072;50.238;19.228;2022-12-18T08:32:01;55.40;;;22.80;;
77117;SDS011;66072;50.238;19.228;2022-12-18T08:34:29;61.60;;;25.70;;
77117;SDS011;66072;50.238;19.228;2022-12-18T08:36:57;57.90;;;26.50;;
77117;SDS011;66072;50.238;19.228;2022-12-18T08:39:25;57.20;;;24.60;;
77117;SDS011;66072;50.238;19.228;2022-12-18T08:41:52;53.60;;;23.30;;
77117;SDS011;66072;50.238;19.228;2022-12-18T08:44:20;62.40;;;25.60;;
77117;SDS011;66072;50.238;19.228;2022-12-18T08:46:48;60.40;;;27.50;;
77117;SDS011;66072;50.238;19.228;2022-12-18T08:49:16;67.40;;;27.90;;
77117;SDS011;66072;50.238;19.228;2022-12-18T08:51:44;53.40;;;24.10;;
77117;SDS011;66072;50.238;19.228;2022-12-18T08:54:12;57.70;;;24.70;;
77117;SDS011;66072;50.238;19.228;2022-12-18T08:56:40;64.20;;;28.10;;
77117;SDS011;66072;50.238;19.228;2022-12-18T08:59:08;68.20;;;28.90;;
77117;SDS011;66072;50.238;19.228;2022-12-18T09:01:43;67.30;;;28.30;;
77117;SDS011;66072;50.238;19.228;2022-12-18T09:04:12;59.30;;;24.70;;
77117;SDS011;66072;50.238;19.228;2022-12-18T09:06:40;64.60;;;26.30;;
77117;SDS011;66072;50.238;19.228;2022-12-18T09:09:08;59.50;;;27.00;;
77117;SDS011;66072;50.238;19.228;2022-12-18T09:11:36;57.00;;;25.00;;
77117;SDS011;66072;50.238;19.228;2022-12-18T09:14:04;55.50;;;24.60;;
77117;SDS011;66072;50.238;19.228;2022-12-18T09:16:32;57.70;;;25.50;;
77117;SDS011;66072;50.238;19.228;2022-12-18T09:19:01;47.10;;;21.00;;
77117;SDS011;66072;50.238;19.228;2022-12-18T09:21:32;53.40;;;23.50;;
77117;SDS011;66072;50.238;19.228;2022-12-18T09:24:03;56.20;;;26.20;;
77117;SDS011;66072;50.238;19.228;2022-12-18T09:26:35;51.80;;;24.30;;
77117;SDS011;66072;50.238;19.228;2022-12-18T09:29:03;55.70;;;25.50;;
77117;SDS011;66072;50.238;19.228;2022-12-18T09:31:31;52.40;;;24.20;;
77117;SDS011;66072;50.238;19.228;2022-12-18T09:33:59;54.90;;;25.10;;
77117;SDS011;66072;50.238;19.228;2022-12-18T09:36:26;54.90;;;25.10;;
77117;SDS011;66072;50.238;19.228;2022-12-18T09:38:54;54.90;;;25.50;;
77117;SDS011;66072;50.238;19.228;2022-12-18T09:41:41;55.30;;;26.20;;
77117;SDS011;66072;50.238;19.228;2022-12-18T09:47:12;60.90;;;25.80;;
77117;SDS011;66072;50.238;19.228;2022-12-18T09:49:45;59.20;;;25.50;;
77117;SDS011;66072;50.238;19.228;2022-12-18T09:55:11;57.70;;;22.40;;
77117;SDS011;66072;50.238;19.228;2022-12-18T10:00:37;54.80;;;23.60;;
77117;SDS011;66072;50.238;19.228;2022-12-18T10:03:14;47.20;;;21.20;;
77117;SDS011;66072;50.238;19.228;2022-12-18T10:06:00;41.50;;;21.30;;
77117;SDS011;66072;50.238;19.228;2022-12-18T10:08:42;49.70;;;24.50;;
77117;SDS011;66072;50.238;19.228;2022-12-18T10:11:26;47.30;;;20.30;;
77117;SDS011;66072;50.238;19.228;2022-12-18T10:14:20;39.70;;;18.60;;
77117;SDS011;66072;50.238;19.228;2022-12-18T10:19:59;39.40;;;19.10;;
77117;SDS011;66072;50.238;19.228;2022-12-18T10:28:10;39.80;;;17.80;;
77117;SDS011;66072;50.238;19.228;2022-12-18T10:30:42;41.70;;;20.20;;
77117;SDS011;66072;50.238;19.228;2022-12-18T10:33:12;36.60;;;18.00;;
77117;SDS011;66072;50.238;19.228;2022-12-18T10:35:43;39.00;;;19.10;;
77117;SDS011;66072;50.238;19.228;2022-12-18T10:43:33;47.40;;;21.90;;
77117;SDS011;66072;50.238;19.228;2022-12-18T10:48:57;43.10;;;20.50;;
77117;SDS011;66072;50.238;19.228;2022-12-18T10:51:35;44.90;;;22.10;;
77117;SDS011;66072;50.238;19.228;2022-12-18T10:54:14;46.30;;;22.00;;
77117;SDS011;66072;50.238;19.228;2022-12-18T10:56:43;45.60;;;23.40;;
77117;SDS011;66072;50.238;19.228;2022-12-18T10:59:14;49.30;;;22.50;;
77117;SDS011;66072;50.238;19.228;2022-12-18T11:04:21;41.50;;;21.30;;
77117;SDS011;66072;50.238;19.228;2022-12-18T11:07:12;39.80;;;20.70;;
77117;SDS011;66072;50.238;19.228;2022-12-18T11:09:39;44.10;;;22.00;;
77117;SDS011;66072;50.238;19.228;2022-12-18T11:12:17;38.60;;;20.40;;
77117;SDS011;66072;50.238;19.228;2022-12-18T11:14:47;47.00;;;23.20;;
77117;SDS011;66072;50.238;19.228;2022-12-18T11:17:39;47.40;;;24.20;;
77117;SDS011;66072;50.238;19.228;2022-12-18T11:20:10;43.00;;;21.20;;
77117;SDS011;66072;50.238;19.228;2022-12-18T11:23:11;34.90;;;17.30;;
77117;SDS011;66072;50.238;19.228;2022-12-18T11:25:40;36.20;;;18.30;;
77117;SDS011;66072;50.238;19.228;2022-12-18T11:28:29;37.10;;;19.20;;
77117;SDS011;66072;50.238;19.228;2022-12-18T11:31:23;32.70;;;18.00;;
77117;SDS011;66072;50.238;19.228;2022-12-18T11:33:56;31.40;;;15.90;;
77117;SDS011;66072;50.238;19.228;2022-12-18T11:36:46;29.30;;;14.80;;
77117;SDS011;66072;50.238;19.228;2022-12-18T11:39:20;31.10;;;15.10;;
77117;SDS011;66072;50.238;19.228;2022-12-18T11:42:16;35.60;;;16.30;;
77117;SDS011;66072;50.238;19.228;2022-12-18T11:44:54;33.20;;;16.90;;
77117;SDS011;66072;50.238;19.228;2022-12-18T11:47:49;36.70;;;16.60;;
77117;SDS011;66072;50.238;19.228;2022-12-18T11:50:20;37.70;;;17.10;;
77117;SDS011;66072;50.238;19.228;2022-12-18T11:52:51;33.90;;;17.00;;
77117;SDS011;66072;50.238;19.228;2022-12-18T11:55:31;33.90;;;16.60;;
77117;SDS011;66072;50.238;19.228;2022-12-18T11:58:11;32.50;;;13.70;;
77117;SDS011;66072;50.238;19.228;2022-12-18T12:00:44;27.40;;;16.40;;
77117;SDS011;66072;50.238;19.228;2022-12-18T12:09:05;55.00;;;21.80;;
77117;SDS011;66072;50.238;19.228;2022-12-18T12:14:54;40.80;;;17.90;;
77117;SDS011;66072;50.238;19.228;2022-12-18T12:23:34;34.70;;;17.10;;
77117;SDS011;66072;50.238;19.228;2022-12-18T12:26:31;30.20;;;14.90;;
77117;SDS011;66072;50.238;19.228;2022-12-18T12:32:15;29.50;;;15.10;;
77117;SDS011;66072;50.238;19.228;2022-12-18T12:35:05;31.50;;;14.60;;
77117;SDS011;66072;50.238;19.228;2022-12-18T12:40:23;26.50;;;15.40;;
77117;SDS011;66072;50.238;19.228;2022-12-18T12:46:17;31.30;;;15.20;;
77117;SDS011;66072;50.238;19.228;2022-12-18T12:48:51;26.30;;;14.50;;
77117;SDS011;66072;50.238;19.228;2022-12-18T12:54:01;36.30;;;16.80;;
77117;SDS011;66072;50.238;19.228;2022-12-18T12:59:20;32.90;;;16.00;;
77117;SDS011;66072;50.238;19.228;2022-12-18T13:08:08;28.70;;;13.10;;
77117;SDS011;66072;50.238;19.228;2022-12-18T13:10:41;33.00;;;13.50;;
77117;SDS011;66072;50.238;19.228;2022-12-18T13:13:13;33.50;;;13.60;;
77117;SDS011;66072;50.238;19.228;2022-12-18T13:16:03;33.60;;;14.50;;
77117;SDS011;66072;50.238;19.228;2022-12-18T13:18:33;28.60;;;14.60;;
77117;SDS011;66072;50.238;19.228;2022-12-18T13:21:04;34.30;;;15.60;;
77117;SDS011;66072;50.238;19.228;2022-12-18T13:23:46;34.10;;;14.40;;
77117;SDS011;66072;50.238;19.228;2022-12-18T13:28:53;33.50;;;16.30;;
77117;SDS011;66072;50.238;19.228;2022-12-18T13:34:22;32.40;;;15.60;;
77117;SDS011;66072;50.238;19.228;2022-12-18T13:43:20;41.90;;;18.30;;
77117;SDS011;66072;50.238;19.228;2022-12-18T13:48:28;41.40;;;19.20;;
77117;SDS011;66072;50.238;19.228;2022-12-18T13:53:28;35.40;;;17.80;;
77117;SDS011;66072;50.238;19.228;2022-12-18T13:56:00;32.40;;;16.20;;
77117;SDS011;66072;50.238;19.228;2022-12-18T13:58:30;31.60;;;15.20;;
77117;SDS011;66072;50.238;19.228;2022-12-18T14:00:58;29.80;;;16.10;;
77117;SDS011;66072;50.238;19.228;2022-12-18T14:03:27;31.80;;;15.30;;
77117;SDS011;66072;50.238;19.228;2022-12-18T14:05:58;28.90;;;14.50;;
77117;SDS011;66072;50.238;19.228;2022-12-18T14:08:38;32.90;;;15.10;;
77117;SDS011;66072;50.238;19.228;2022-12-18T14:11:18;36.80;;;16.70;;
77117;SDS011;66072;50.238;19.228;2022-12-18T14:13:49;36.80;;;17.60;;
77117;SDS011;66072;50.238;19.228;2022-12-18T14:16:17;37.60;;;17.90;;
77117;SDS011;66072;50.238;19.228;2022-12-18T14:18:51;38.00;;;17.20;;
77117;SDS011;66072;50.238;19.228;2022-12-18T14:21:23;38.90;;;16.70;;
77117;SDS011;66072;50.238;19.228;2022-12-18T14:24:16;35.10;;;16.60;;
77117;SDS011;66072;50.238;19.228;2022-12-18T14:26:47;45.00;;;20.40;;
77117;SDS011;66072;50.238;19.228;2022-12-18T14:29:21;35.20;;;18.60;;
77117;SDS011;66072;50.238;19.228;2022-12-18T14:34:51;49.30;;;19.90;;
77117;SDS011;66072;50.238;19.228;2022-12-18T14:37:21;52.60;;;22.90;;
77117;SDS011;66072;50.238;19.228;2022-12-18T14:42:21;51.10;;;22.70;;
77117;SDS011;66072;50.238;19.228;2022-12-18T14:44:49;43.30;;;17.10;;
77117;SDS011;66072;50.238;19.228;2022-12-18T14:47:37;52.30;;;22.90;;
77117;SDS011;66072;50.238;19.228;2022-12-18T14:50:11;54.80;;;23.20;;
77117;SDS011;66072;50.238;19.228;2022-12-18T14:52:41;63.60;;;23.60;;
77117;SDS011;66072;50.238;19.228;2022-12-18T14:55:15;89.50;;;34.80;;
77117;SDS011;66072;50.238;19.228;2022-12-18T14:57:52;102.80;;;38.70;;
77117;SDS011;66072;50.238;19.228;2022-12-18T15:00:23;64.50;;;26.80;;
77117;SDS011;66072;50.238;19.228;2022-12-18T15:02:53;57.90;;;25.30;;
77117;SDS011;66072;50.238;19.228;2022-12-18T15:05:27;59.00;;;25.70;;
77117;SDS011;66072;50.238;19.228;2022-12-18T15:07:57;42.90;;;21.30;;
77117;SDS011;66072;50.238;19.228;2022-12-18T15:15:48;50.30;;;26.70;;
77117;SDS011;66072;50.238;19.228;2022-12-18T15:18:35;58.70;;;26.20;;
77117;SDS011;66072;50.238;19.228;2022-12-18T15:21:10;56.70;;;26.80;;
77117;SDS011;66072;50.238;19.228;2022-12-18T15:26:12;56.60;;;27.10;;
77117;SDS011;66072;50.238;19.228;2022-12-18T15:33:45;54.00;;;28.60;;
77117;SDS011;66072;50.238;19.228;2022-12-18T15:36:28;59.70;;;27.90;;
77117;SDS011;66072;50.238;19.228;2022-12-18T15:38:57;60.80;;;28.50;;
77117;SDS011;66072;50.238;19.228;2022-12-18T15:41:32;64.20;;;28.70;;
77117;SDS011;66072;50.238;19.228;2022-12-18T15:44:03;67.90;;;29.10;;
77117;SDS011;66072;50.238;19.228;2022-12-18T15:46:50;72.80;;;31.10;;
77117;SDS011;66072;50.238;19.228;2022-12-18T15:49:18;67.70;;;32.00;;
77117;SDS011;66072;50.238;19.228;2022-12-18T15:51:46;61.10;;;29.30;;
77117;SDS011;66072;50.238;19.228;2022-12-18T15:54:21;68.30;;;30.70;;
77117;SDS011;66072;50.238;19.228;2022-12-18T15:56:49;73.00;;;31.70;;
77117;SDS011;66072;50.238;19.228;2022-12-18T15:59:18;69.70;;;30.00;;
77117;SDS011;66072;50.238;19.228;2022-12-18T16:01:48;58.00;;;31.30;;
77117;SDS011;66072;50.238;19.228;2022-12-18T16:04:18;62.30;;;29.40;;
77117;SDS011;66072;50.238;19.228;2022-12-18T16:06:48;64.80;;;28.70;;
77117;SDS011;66072;50.238;19.228;2022-12-18T16:09:38;67.60;;;28.40;;
77117;SDS011;66072;50.238;19.228;2022-12-18T16:12:06;64.10;;;29.30;;
77117;SDS011;66072;50.238;19.228;2022-12-18T16:14:42;66.00;;;30.10;;
77117;SDS011;66072;50.238;19.228;2022-12-18T16:17:11;64.00;;;32.20;;
77117;SDS011;66072;50.238;19.228;2022-12-18T16:19:40;57.90;;;27.20;;
77117;SDS011;66072;50.238;19.228;2022-12-18T16:22:14;67.20;;;30.00;;
77117;SDS011;66072;50.238;19.228;2022-12-18T16:24:48;59.50;;;29.90;;
77117;SDS011;66072;50.238;19.228;2022-12-18T16:27:16;68.60;;;31.00;;
77117;SDS011;66072;50.238;19.228;2022-12-18T16:29:44;70.60;;;35.30;;
77117;SDS011;66072;50.238;19.228;2022-12-18T16:32:13;73.30;;;33.70;;
77117;SDS011;66072;50.238;19.228;2022-12-18T16:34:45;72.60;;;33.20;;
77117;SDS011;66072;50.238;19.228;2022-12-18T16:37:14;58.40;;;30.70;;